sensor_id;sensor_type;location;lat;lon;timestamp;temperature;humidity
17442;DHT22;8838;50.144;8.176;2022-08-30T00:01:32;14.60;99.90
17442;DHT22;8838;50.144;8.176;2022-08-30T00:04:01;14.70;99.90
17442;DHT22;8838;50.144;8.176;2022-08-30T00:06:32;14.60;99.90
17442;DHT22;8838;50.144;8.176;2022-08-30T00:08:59;14.60;99.90
17442;DHT22;8838;50.144;8.176;2022-08-30T00:11:27;14.50;99.90
17442;DHT22;8838;50.144;8.176;2022-08-30T00:13:55;14.50;99.90
17442;DHT22;8838;50.144;8.176;2022-08-30T00:16:23;14.40;99.90
17442;DHT22;8838;50.144;8.176;2022-08-30T00:18:51;14.50;99.90
17442;DHT22;8838;50.144;8.176;2022-08-30T00:21:19;14.50;99.90
17442;DHT22;8838;50.144;8.176;2022-08-30T00:23:47;14.50;99.90
17442;DHT22;8838;50.144;8.176;2022-08-30T00:26:14;14.40;99.90
17442;DHT22;8838;50.144;8.176;2022-08-30T00:28:41;14.50;99.90
17442;DHT22;8838;50.144;8.176;2022-08-30T00:31:08;14.50;99.90
17442;DHT22;8838;50.144;8.176;2022-08-30T00:33:35;14.60;99.90
17442;DHT22;8838;50.144;8.176;2022-08-30T00:36:03;14.50;99.90
17442;DHT22;8838;50.144;8.176;2022-08-30T00:38:31;14.50;99.90
17442;DHT22;8838;50.144;8.176;2022-08-30T00:40:58;14.30;99.90
17442;DHT22;8838;50.144;8.176;2022-08-30T00:43:29;14.00;99.90
17442;DHT22;8838;50.144;8.176;2022-08-30T00:45:56;14.00;99.90
17442;DHT22;8838;50.144;8.176;2022-08-30T00:48:23;13.90;99.90
17442;DHT22;8838;50.144;8.176;2022-08-30T00:50:56;13.90;99.90
17442;DHT22;8838;50.144;8.176;2022-08-30T00:53:28;13.90;99.90
17442;DHT22;8838;50.144;8.176;2022-08-30T00:55:58;14.00;99.90
17442;DHT22;8838;50.144;8.176;2022-08-30T00:58:30;14.10;99.90
17442;DHT22;8838;50.144;8.176;2022-08-30T01:00:59;14.10;99.90
17442;DHT22;8838;50.144;8.176;2022-08-30T01:03:27;14.10;99.90
17442;DHT22;8838;50.144;8.176;2022-08-30T01:05:56;14.10;99.90
17442;DHT22;8838;50.144;8.176;2022-08-30T01:08:23;14.00;99.90
17442;DHT22;8838;50.144;8.176;2022-08-30T01:10:52;13.90;99.90
17442;DHT22;8838;50.144;8.176;2022-08-30T01:13:21;13.80;99.90
17442;DHT22;8838;50.144;8.176;2022-08-30T01:15:49;13.80;99.90
17442;DHT22;8838;50.144;8.176;2022-08-30T01:18:17;13.80;99.90
17442;DHT22;8838;50.144;8.176;2022-08-30T01:20:49;13.90;99.90
17442;DHT22;8838;50.144;8.176;2022-08-30T01:23:20;13.90;99.90
17442;DHT22;8838;50.144;8.176;2022-08-30T01:25:49;13.90;99.90
17442;DHT22;8838;50.144;8.176;2022-08-30T01:28:20;13.90;99.90
17442;DHT22;8838;50.144;8.176;2022-08-30T01:30:48;13.90;99.90
17442;DHT22;8838;50.144;8.176;2022-08-30T01:33:16;14.00;99.90
17442;DHT22;8838;50.144;8.176;2022-08-30T01:35:47;13.90;99.90
17442;DHT22;8838;50.144;8.176;2022-08-30T01:38:16;13.80;99.90
17442;DHT22;8838;50.144;8.176;2022-08-30T01:40:45;13.70;99.90
17442;DHT22;8838;50.144;8.176;2022-08-30T01:43:13;13.70;99.90
17442;DHT22;8838;50.144;8.176;2022-08-30T01:45:41;13.70;99.90
17442;DHT22;8838;50.144;8.176;2022-08-30T01:48:08;13.70;99.90
17442;DHT22;8838;50.144;8.176;2022-08-30T01:50:37;13.60;99.90
17442;DHT22;8838;50.144;8.176;2022-08-30T01:53:04;13.60;99.90
17442;DHT22;8838;50.144;8.176;2022-08-30T01:55:31;13.50;99.90
17442;DHT22;8838;50.144;8.176;2022-08-30T01:57:59;13.50;99.90
17442;DHT22;8838;50.144;8.176;2022-08-30T02:00:27;13.50;99.90
17442;DHT22;8838;50.144;8.176;2022-08-30T02:02:55;13.60;99.90
17442;DHT22;8838;50.144;8.176;2022-08-30T02:05:23;13.60;99.90
17442;DHT22;8838;50.144;8.176;2022-08-30T02:07:50;13.60;99.90
17442;DHT22;8838;50.144;8.176;2022-08-30T02:10:17;13.60;99.90
17442;DHT22;8838;50.144;8.176;2022-08-30T02:12:45;13.60;99.90
17442;DHT22;8838;50.144;8.176;2022-08-30T02:15:14;13.60;99.90
17442;DHT22;8838;50.144;8.176;2022-08-30T02:17:41;13.40;99.90
17442;DHT22;8838;50.144;8.176;2022-08-30T02:20:09;13.30;99.90
17442;DHT22;8838;50.144;8.176;2022-08-30T02:22:36;13.20;99.90
17442;DHT22;8838;50.144;8.176;2022-08-30T02:25:04;13.30;99.90
17442;DHT22;8838;50.144;8.176;2022-08-30T02:27:31;13.30;99.90
17442;DHT22;8838;50.144;8.176;2022-08-30T02:29:58;13.20;99.90
17442;DHT22;8838;50.144;8.176;2022-08-30T02:32:27;13.20;99.90
17442;DHT22;8838;50.144;8.176;2022-08-30T02:34:54;13.30;99.90
17442;DHT22;8838;50.144;8.176;2022-08-30T02:37:20;13.40;99.90
17442;DHT22;8838;50.144;8.176;2022-08-30T02:39:47;13.30;99.90
17442;DHT22;8838;50.144;8.176;2022-08-30T02:42:14;13.20;99.90
17442;DHT22;8838;50.144;8.176;2022-08-30T02:44:41;13.20;99.90
17442;DHT22;8838;50.144;8.176;2022-08-30T02:47:08;13.00;99.90
17442;DHT22;8838;50.144;8.176;2022-08-30T02:49:37;13.00;99.90
17442;DHT22;8838;50.144;8.176;2022-08-30T02:52:09;13.20;99.90
17442;DHT22;8838;50.144;8.176;2022-08-30T02:54:36;13.20;99.90
17442;DHT22;8838;50.144;8.176;2022-08-30T02:57:03;13.30;99.90
17442;DHT22;8838;50.144;8.176;2022-08-30T02:59:31;13.20;99.90
17442;DHT22;8838;50.144;8.176;2022-08-30T03:01:58;12.90;99.90
17442;DHT22;8838;50.144;8.176;2022-08-30T03:04:25;12.90;99.90
17442;DHT22;8838;50.144;8.176;2022-08-30T03:06:53;12.70;99.90
17442;DHT22;8838;50.144;8.176;2022-08-30T03:09:20;12.60;99.90
17442;DHT22;8838;50.144;8.176;2022-08-30T03:11:48;12.50;99.90
17442;DHT22;8838;50.144;8.176;2022-08-30T03:14:14;12.50;99.90
17442;DHT22;8838;50.144;8.176;2022-08-30T03:16:41;12.50;99.90
17442;DHT22;8838;50.144;8.176;2022-08-30T03:19:08;12.60;99.90
17442;DHT22;8838;50.144;8.176;2022-08-30T03:21:35;12.60;99.90
17442;DHT22;8838;50.144;8.176;2022-08-30T03:24:04;12.70;99.90
17442;DHT22;8838;50.144;8.176;2022-08-30T03:26:31;12.70;99.90
17442;DHT22;8838;50.144;8.176;2022-08-30T03:28:58;12.80;99.90
17442;DHT22;8838;50.144;8.176;2022-08-30T03:31:25;12.80;99.90
17442;DHT22;8838;50.144;8.176;2022-08-30T03:33:51;12.80;99.90
17442;DHT22;8838;50.144;8.176;2022-08-30T03:36:18;12.80;99.90
17442;DHT22;8838;50.144;8.176;2022-08-30T03:38:46;12.70;99.90
17442;DHT22;8838;50.144;8.176;2022-08-30T03:41:14;12.70;99.90
17442;DHT22;8838;50.144;8.176;2022-08-30T03:43:41;12.70;99.90
17442;DHT22;8838;50.144;8.176;2022-08-30T03:46:10;12.70;99.90
17442;DHT22;8838;50.144;8.176;2022-08-30T03:48:37;12.80;99.90
17442;DHT22;8838;50.144;8.176;2022-08-30T03:51:04;12.70;99.90
17442;DHT22;8838;50.144;8.176;2022-08-30T03:53:32;12.50;99.90
17442;DHT22;8838;50.144;8.176;2022-08-30T03:56:00;12.40;99.90
17442;DHT22;8838;50.144;8.176;2022-08-30T03:58:29;12.30;99.90
17442;DHT22;8838;50.144;8.176;2022-08-30T04:00:55;12.20;99.90
17442;DHT22;8838;50.144;8.176;2022-08-30T04:03:22;12.20;99.90
17442;DHT22;8838;50.144;8.176;2022-08-30T04:05:50;12.30;99.90
17442;DHT22;8838;50.144;8.176;2022-08-30T04:08:18;12.30;99.90
17442;DHT22;8838;50.144;8.176;2022-08-30T04:10:45;12.40;99.90
17442;DHT22;8838;50.144;8.176;2022-08-30T04:13:12;12.40;99.90
17442;DHT22;8838;50.144;8.176;2022-08-30T04:15:40;12.30;99.90
17442;DHT22;8838;50.144;8.176;2022-08-30T04:18:07;12.30;99.90
17442;DHT22;8838;50.144;8.176;2022-08-30T04:20:34;12.20;99.90
17442;DHT22;8838;50.144;8.176;2022-08-30T04:23:02;12.10;99.90
17442;DHT22;8838;50.144;8.176;2022-08-30T04:25:30;12.10;99.90
17442;DHT22;8838;50.144;8.176;2022-08-30T04:27:57;12.10;99.90
17442;DHT22;8838;50.144;8.176;2022-08-30T04:30:27;12.10;99.90
17442;DHT22;8838;50.144;8.176;2022-08-30T04:32:56;12.10;99.90
17442;DHT22;8838;50.144;8.176;2022-08-30T04:35:23;12.20;99.90
17442;DHT22;8838;50.144;8.176;2022-08-30T04:37:50;12.10;99.90
17442;DHT22;8838;50.144;8.176;2022-08-30T04:40:17;12.00;99.90
17442;DHT22;8838;50.144;8.176;2022-08-30T04:42:45;12.00;99.90
17442;DHT22;8838;50.144;8.176;2022-08-30T04:45:14;12.00;99.90
17442;DHT22;8838;50.144;8.176;2022-08-30T04:47:42;12.00;99.90
17442;DHT22;8838;50.144;8.176;2022-08-30T04:50:13;12.00;99.90
17442;DHT22;8838;50.144;8.176;2022-08-30T04:52:42;12.00;99.90
17442;DHT22;8838;50.144;8.176;2022-08-30T04:55:10;11.90;99.90
17442;DHT22;8838;50.144;8.176;2022-08-30T04:57:38;11.90;99.90
17442;DHT22;8838;50.144;8.176;2022-08-30T05:00:07;11.90;99.90
17442;DHT22;8838;50.144;8.176;2022-08-30T05:02:35;12.00;99.90
17442;DHT22;8838;50.144;8.176;2022-08-30T05:05:03;11.90;99.90
17442;DHT22;8838;50.144;8.176;2022-08-30T05:07:49;12.10;99.90
17442;DHT22;8838;50.144;8.176;2022-08-30T05:10:16;12.30;99.90
17442;DHT22;8838;50.144;8.176;2022-08-30T05:12:43;12.30;99.90
17442;DHT22;8838;50.144;8.176;2022-08-30T05:15:11;12.30;99.90
17442;DHT22;8838;50.144;8.176;2022-08-30T05:17:39;12.30;99.90
17442;DHT22;8838;50.144;8.176;2022-08-30T05:20:08;12.20;99.90
17442;DHT22;8838;50.144;8.176;2022-08-30T05:22:36;12.20;99.90
17442;DHT22;8838;50.144;8.176;2022-08-30T05:25:06;12.20;99.90
17442;DHT22;8838;50.144;8.176;2022-08-30T05:27:34;12.30;99.90
17442;DHT22;8838;50.144;8.176;2022-08-30T05:30:01;12.40;99.90
17442;DHT22;8838;50.144;8.176;2022-08-30T05:32:28;12.40;99.90
17442;DHT22;8838;50.144;8.176;2022-08-30T05:34:55;12.60;99.90
17442;DHT22;8838;50.144;8.176;2022-08-30T05:37:21;12.60;99.90
17442;DHT22;8838;50.144;8.176;2022-08-30T05:39:48;12.80;99.90
17442;DHT22;8838;50.144;8.176;2022-08-30T05:42:16;12.80;99.90
17442;DHT22;8838;50.144;8.176;2022-08-30T05:44:43;12.80;99.90
17442;DHT22;8838;50.144;8.176;2022-08-30T05:47:10;13.00;99.90
17442;DHT22;8838;50.144;8.176;2022-08-30T05:49:37;13.00;99.90
17442;DHT22;8838;50.144;8.176;2022-08-30T05:52:04;12.90;99.90
17442;DHT22;8838;50.144;8.176;2022-08-30T05:54:31;12.90;99.90
17442;DHT22;8838;50.144;8.176;2022-08-30T05:56:58;12.80;99.90
17442;DHT22;8838;50.144;8.176;2022-08-30T05:59:28;12.90;99.90
17442;DHT22;8838;50.144;8.176;2022-08-30T06:01:56;13.00;99.90
17442;DHT22;8838;50.144;8.176;2022-08-30T06:04:24;13.10;99.90
17442;DHT22;8838;50.144;8.176;2022-08-30T06:06:51;13.30;99.90
17442;DHT22;8838;50.144;8.176;2022-08-30T06:09:18;13.30;99.90
17442;DHT22;8838;50.144;8.176;2022-08-30T06:11:45;13.50;99.90
17442;DHT22;8838;50.144;8.176;2022-08-30T06:14:13;13.60;99.90
17442;DHT22;8838;50.144;8.176;2022-08-30T06:16:41;13.70;99.90
17442;DHT22;8838;50.144;8.176;2022-08-30T06:19:10;13.90;99.90
17442;DHT22;8838;50.144;8.176;2022-08-30T06:21:38;14.10;99.90
17442;DHT22;8838;50.144;8.176;2022-08-30T06:24:07;14.20;99.90
17442;DHT22;8838;50.144;8.176;2022-08-30T06:26:37;14.40;99.90
17442;DHT22;8838;50.144;8.176;2022-08-30T06:29:06;14.60;99.90
17442;DHT22;8838;50.144;8.176;2022-08-30T06:31:33;14.70;99.90
17442;DHT22;8838;50.144;8.176;2022-08-30T06:34:03;14.90;99.90
17442;DHT22;8838;50.144;8.176;2022-08-30T06:36:30;15.00;99.90
17442;DHT22;8838;50.144;8.176;2022-08-30T06:38:59;15.20;99.90
17442;DHT22;8838;50.144;8.176;2022-08-30T06:41:29;15.30;99.90
17442;DHT22;8838;50.144;8.176;2022-08-30T06:43:57;15.30;99.90
17442;DHT22;8838;50.144;8.176;2022-08-30T06:46:26;15.40;99.90
17442;DHT22;8838;50.144;8.176;2022-08-30T06:48:54;15.60;99.90
17442;DHT22;8838;50.144;8.176;2022-08-30T06:51:25;15.70;99.90
17442;DHT22;8838;50.144;8.176;2022-08-30T06:53:52;15.90;99.90
17442;DHT22;8838;50.144;8.176;2022-08-30T06:56:20;16.00;99.90
17442;DHT22;8838;50.144;8.176;2022-08-30T06:58:48;16.10;99.90
17442;DHT22;8838;50.144;8.176;2022-08-30T07:01:17;16.30;99.90
17442;DHT22;8838;50.144;8.176;2022-08-30T07:03:44;16.60;99.90
17442;DHT22;8838;50.144;8.176;2022-08-30T07:06:11;16.80;99.90
17442;DHT22;8838;50.144;8.176;2022-08-30T07:08:40;17.10;99.90
17442;DHT22;8838;50.144;8.176;2022-08-30T07:11:08;17.40;99.90
17442;DHT22;8838;50.144;8.176;2022-08-30T07:13:35;17.70;99.90
17442;DHT22;8838;50.144;8.176;2022-08-30T07:16:09;18.10;99.90
17442;DHT22;8838;50.144;8.176;2022-08-30T07:18:36;18.40;99.90
17442;DHT22;8838;50.144;8.176;2022-08-30T07:21:23;18.70;99.90
17442;DHT22;8838;50.144;8.176;2022-08-30T07:23:53;19.00;99.90
17442;DHT22;8838;50.144;8.176;2022-08-30T07:26:23;19.20;99.90
17442;DHT22;8838;50.144;8.176;2022-08-30T07:28:51;19.50;99.90
17442;DHT22;8838;50.144;8.176;2022-08-30T07:31:19;19.50;99.90
17442;DHT22;8838;50.144;8.176;2022-08-30T07:33:46;19.70;99.90
17442;DHT22;8838;50.144;8.176;2022-08-30T07:36:15;19.80;99.90
17442;DHT22;8838;50.144;8.176;2022-08-30T07:38:43;20.00;99.90
17442;DHT22;8838;50.144;8.176;2022-08-30T07:41:18;20.60;99.90
17442;DHT22;8838;50.144;8.176;2022-08-30T07:43:45;20.90;99.90
17442;DHT22;8838;50.144;8.176;2022-08-30T07:46:12;21.20;99.90
17442;DHT22;8838;50.144;8.176;2022-08-30T07:48:41;21.60;99.90
17442;DHT22;8838;50.144;8.176;2022-08-30T07:51:10;21.80;99.90
17442;DHT22;8838;50.144;8.176;2022-08-30T07:53:38;21.70;99.90
17442;DHT22;8838;50.144;8.176;2022-08-30T07:56:05;21.60;99.90
17442;DHT22;8838;50.144;8.176;2022-08-30T07:58:33;21.90;99.90
17442;DHT22;8838;50.144;8.176;2022-08-30T08:01:02;22.30;99.90
17442;DHT22;8838;50.144;8.176;2022-08-30T08:03:29;22.70;99.90
17442;DHT22;8838;50.144;8.176;2022-08-30T08:05:56;23.10;99.90
17442;DHT22;8838;50.144;8.176;2022-08-30T08:08:24;23.50;99.90
17442;DHT22;8838;50.144;8.176;2022-08-30T08:10:54;23.80;99.90
17442;DHT22;8838;50.144;8.176;2022-08-30T08:13:21;24.40;99.90
17442;DHT22;8838;50.144;8.176;2022-08-30T08:15:50;24.60;99.90
17442;DHT22;8838;50.144;8.176;2022-08-30T08:18:17;24.90;99.90
17442;DHT22;8838;50.144;8.176;2022-08-30T08:20:44;25.20;99.90
17442;DHT22;8838;50.144;8.176;2022-08-30T08:23:11;25.50;99.90
17442;DHT22;8838;50.144;8.176;2022-08-30T08:25:39;25.70;99.90
17442;DHT22;8838;50.144;8.176;2022-08-30T08:28:06;25.80;99.90
17442;DHT22;8838;50.144;8.176;2022-08-30T08:30:35;25.90;99.90
17442;DHT22;8838;50.144;8.176;2022-08-30T08:33:04;25.90;99.90
17442;DHT22;8838;50.144;8.176;2022-08-30T08:35:32;25.90;99.90
17442;DHT22;8838;50.144;8.176;2022-08-30T08:37:59;26.10;99.90
17442;DHT22;8838;50.144;8.176;2022-08-30T08:40:27;26.30;99.90
17442;DHT22;8838;50.144;8.176;2022-08-30T08:43:01;27.00;99.90
17442;DHT22;8838;50.144;8.176;2022-08-30T08:45:41;27.40;99.90
17442;DHT22;8838;50.144;8.176;2022-08-30T08:48:16;27.90;99.90
17442;DHT22;8838;50.144;8.176;2022-08-30T08:50:46;28.20;99.90
17442;DHT22;8838;50.144;8.176;2022-08-30T08:53:32;28.50;99.90
17442;DHT22;8838;50.144;8.176;2022-08-30T08:56:05;28.50;99.10
17442;DHT22;8838;50.144;8.176;2022-08-30T08:58:41;28.60;99.10
17442;DHT22;8838;50.144;8.176;2022-08-30T09:01:09;28.80;98.30
17442;DHT22;8838;50.144;8.176;2022-08-30T09:03:38;28.70;97.50
17442;DHT22;8838;50.144;8.176;2022-08-30T09:09:08;28.90;97.20
17442;DHT22;8838;50.144;8.176;2022-08-30T09:11:36;29.20;96.70
17442;DHT22;8838;50.144;8.176;2022-08-30T09:14:06;29.40;95.40
17442;DHT22;8838;50.144;8.176;2022-08-30T09:16:47;29.60;94.50
17442;DHT22;8838;50.144;8.176;2022-08-30T09:19:29;29.50;94.00
17442;DHT22;8838;50.144;8.176;2022-08-30T09:21:58;29.30;93.70
17442;DHT22;8838;50.144;8.176;2022-08-30T09:24:25;29.50;93.30
17442;DHT22;8838;50.144;8.176;2022-08-30T09:26:52;29.50;92.80
17442;DHT22;8838;50.144;8.176;2022-08-30T09:29:19;29.80;93.20
17442;DHT22;8838;50.144;8.176;2022-08-30T09:31:50;30.30;93.80
17442;DHT22;8838;50.144;8.176;2022-08-30T09:34:21;30.00;94.40
17442;DHT22;8838;50.144;8.176;2022-08-30T09:36:52;30.40;94.60
17442;DHT22;8838;50.144;8.176;2022-08-30T09:39:28;30.70;93.80
17442;DHT22;8838;50.144;8.176;2022-08-30T09:42:11;31.30;93.70
17442;DHT22;8838;50.144;8.176;2022-08-30T09:44:39;31.60;93.50
17442;DHT22;8838;50.144;8.176;2022-08-30T09:47:17;31.70;92.30
17442;DHT22;8838;50.144;8.176;2022-08-30T09:49:45;31.60;92.00
17442;DHT22;8838;50.144;8.176;2022-08-30T09:52:31;31.80;91.90
17442;DHT22;8838;50.144;8.176;2022-08-30T09:55:18;31.90;92.30
17442;DHT22;8838;50.144;8.176;2022-08-30T09:57:54;31.70;91.10
17442;DHT22;8838;50.144;8.176;2022-08-30T10:00:23;31.90;90.90
17442;DHT22;8838;50.144;8.176;2022-08-30T10:03:02;31.40;91.20
17442;DHT22;8838;50.144;8.176;2022-08-30T10:05:37;31.50;91.00
17442;DHT22;8838;50.144;8.176;2022-08-30T10:08:18;31.50;91.10
17442;DHT22;8838;50.144;8.176;2022-08-30T10:10:50;31.90;90.90
17442;DHT22;8838;50.144;8.176;2022-08-30T10:13:36;31.90;90.20
17442;DHT22;8838;50.144;8.176;2022-08-30T10:16:11;32.00;90.00
17442;DHT22;8838;50.144;8.176;2022-08-30T10:18:47;31.50;90.00
17442;DHT22;8838;50.144;8.176;2022-08-30T10:21:22;31.60;90.00
17442;DHT22;8838;50.144;8.176;2022-08-30T10:23:55;32.00;90.30
17442;DHT22;8838;50.144;8.176;2022-08-30T10:26:26;31.90;87.70
17442;DHT22;8838;50.144;8.176;2022-08-30T10:28:56;32.50;86.70
17442;DHT22;8838;50.144;8.176;2022-08-30T10:31:30;32.80;85.80
17442;DHT22;8838;50.144;8.176;2022-08-30T10:34:04;33.00;84.10
17442;DHT22;8838;50.144;8.176;2022-08-30T10:36:36;33.50;84.50
17442;DHT22;8838;50.144;8.176;2022-08-30T10:39:07;33.40;82.80
17442;DHT22;8838;50.144;8.176;2022-08-30T10:41:39;33.20;82.00
17442;DHT22;8838;50.144;8.176;2022-08-30T10:44:14;33.50;80.40
17442;DHT22;8838;50.144;8.176;2022-08-30T10:46:57;33.50;79.50
17442;DHT22;8838;50.144;8.176;2022-08-30T10:49:29;33.60;80.30
17442;DHT22;8838;50.144;8.176;2022-08-30T10:52:13;33.70;80.10
17442;DHT22;8838;50.144;8.176;2022-08-30T10:54:47;33.50;78.50
17442;DHT22;8838;50.144;8.176;2022-08-30T10:57:15;34.10;79.00
17442;DHT22;8838;50.144;8.176;2022-08-30T10:59:45;34.00;78.00
17442;DHT22;8838;50.144;8.176;2022-08-30T11:02:48;33.90;77.60
17442;DHT22;8838;50.144;8.176;2022-08-30T11:05:43;34.30;77.90
17442;DHT22;8838;50.144;8.176;2022-08-30T11:08:23;34.30;76.90
17442;DHT22;8838;50.144;8.176;2022-08-30T11:11:01;34.00;75.80
17442;DHT22;8838;50.144;8.176;2022-08-30T11:13:35;33.90;76.10
17442;DHT22;8838;50.144;8.176;2022-08-30T11:16:05;33.60;77.30
17442;DHT22;8838;50.144;8.176;2022-08-30T11:18:49;33.50;76.30
17442;DHT22;8838;50.144;8.176;2022-08-30T11:21:22;32.60;77.40
17442;DHT22;8838;50.144;8.176;2022-08-30T11:24:02;33.00;76.90
17442;DHT22;8838;50.144;8.176;2022-08-30T11:26:54;33.10;77.70
17442;DHT22;8838;50.144;8.176;2022-08-30T11:29:32;32.80;76.70
17442;DHT22;8838;50.144;8.176;2022-08-30T11:32:20;32.90;77.30
17442;DHT22;8838;50.144;8.176;2022-08-30T11:34:58;32.80;78.10
17442;DHT22;8838;50.144;8.176;2022-08-30T11:37:46;33.20;77.30
17442;DHT22;8838;50.144;8.176;2022-08-30T11:40:43;33.50;76.00
17442;DHT22;8838;50.144;8.176;2022-08-30T11:46:17;33.90;75.50
17442;DHT22;8838;50.144;8.176;2022-08-30T11:48:47;33.90;76.10
17442;DHT22;8838;50.144;8.176;2022-08-30T11:54:24;32.80;76.90
17442;DHT22;8838;50.144;8.176;2022-08-30T11:56:59;32.30;76.90
17442;DHT22;8838;50.144;8.176;2022-08-30T11:59:36;31.80;78.20
17442;DHT22;8838;50.144;8.176;2022-08-30T12:02:07;31.50;78.60
17442;DHT22;8838;50.144;8.176;2022-08-30T12:04:41;31.60;79.30
17442;DHT22;8838;50.144;8.176;2022-08-30T12:07:09;31.20;78.60
17442;DHT22;8838;50.144;8.176;2022-08-30T12:10:01;30.80;78.70
17442;DHT22;8838;50.144;8.176;2022-08-30T12:12:49;30.80;81.00
17442;DHT22;8838;50.144;8.176;2022-08-30T12:18:28;30.30;80.70
17442;DHT22;8838;50.144;8.176;2022-08-30T12:21:00;29.60;81.20
17442;DHT22;8838;50.144;8.176;2022-08-30T12:23:35;29.80;81.80
17442;DHT22;8838;50.144;8.176;2022-08-30T12:26:18;30.10;81.30
17442;DHT22;8838;50.144;8.176;2022-08-30T12:28:48;30.20;81.40
17442;DHT22;8838;50.144;8.176;2022-08-30T12:31:21;30.40;80.70
17442;DHT22;8838;50.144;8.176;2022-08-30T12:33:54;30.20;81.00
17442;DHT22;8838;50.144;8.176;2022-08-30T12:36:33;30.10;80.80
17442;DHT22;8838;50.144;8.176;2022-08-30T12:39:08;30.00;82.20
17442;DHT22;8838;50.144;8.176;2022-08-30T12:41:36;30.00;80.90
17442;DHT22;8838;50.144;8.176;2022-08-30T12:44:03;30.00;81.40
17442;DHT22;8838;50.144;8.176;2022-08-30T12:46:34;29.90;82.30
17442;DHT22;8838;50.144;8.176;2022-08-30T12:49:02;30.10;83.10
17442;DHT22;8838;50.144;8.176;2022-08-30T12:51:36;30.60;82.80
17442;DHT22;8838;50.144;8.176;2022-08-30T12:54:07;30.80;81.00
17442;DHT22;8838;50.144;8.176;2022-08-30T12:56:47;30.90;80.80
17442;DHT22;8838;50.144;8.176;2022-08-30T12:59:40;30.60;81.40
17442;DHT22;8838;50.144;8.176;2022-08-30T13:02:12;30.70;81.50
17442;DHT22;8838;50.144;8.176;2022-08-30T13:04:41;31.00;82.20
17442;DHT22;8838;50.144;8.176;2022-08-30T13:07:09;30.80;81.60
17442;DHT22;8838;50.144;8.176;2022-08-30T13:09:39;30.70;81.60
17442;DHT22;8838;50.144;8.176;2022-08-30T13:12:20;30.90;83.00
17442;DHT22;8838;50.144;8.176;2022-08-30T13:14:48;31.00;83.10
17442;DHT22;8838;50.144;8.176;2022-08-30T13:17:23;31.40;82.20
17442;DHT22;8838;50.144;8.176;2022-08-30T13:20:01;31.70;81.80
17442;DHT22;8838;50.144;8.176;2022-08-30T13:22:32;31.60;81.00
17442;DHT22;8838;50.144;8.176;2022-08-30T13:24:59;31.30;81.30
17442;DHT22;8838;50.144;8.176;2022-08-30T13:27:35;30.90;82.60
17442;DHT22;8838;50.144;8.176;2022-08-30T13:30:06;30.60;82.40
17442;DHT22;8838;50.144;8.176;2022-08-30T13:32:33;30.20;82.30
17442;DHT22;8838;50.144;8.176;2022-08-30T13:35:05;29.90;83.70
17442;DHT22;8838;50.144;8.176;2022-08-30T13:37:33;29.60;83.90
17442;DHT22;8838;50.144;8.176;2022-08-30T13:40:00;29.60;84.60
17442;DHT22;8838;50.144;8.176;2022-08-30T13:42:27;29.60;84.60
17442;DHT22;8838;50.144;8.176;2022-08-30T13:44:54;29.50;85.00
17442;DHT22;8838;50.144;8.176;2022-08-30T13:47:21;29.30;85.00
17442;DHT22;8838;50.144;8.176;2022-08-30T13:49:48;29.30;85.70
17442;DHT22;8838;50.144;8.176;2022-08-30T13:52:18;29.70;85.60
17442;DHT22;8838;50.144;8.176;2022-08-30T13:54:47;29.90;84.90
17442;DHT22;8838;50.144;8.176;2022-08-30T13:57:15;30.10;84.10
17442;DHT22;8838;50.144;8.176;2022-08-30T13:59:42;30.10;84.90
17442;DHT22;8838;50.144;8.176;2022-08-30T14:02:09;30.60;84.30
17442;DHT22;8838;50.144;8.176;2022-08-30T14:04:36;30.60;83.40
17442;DHT22;8838;50.144;8.176;2022-08-30T14:07:03;30.60;83.50
17442;DHT22;8838;50.144;8.176;2022-08-30T14:09:32;30.60;82.90
17442;DHT22;8838;50.144;8.176;2022-08-30T14:11:59;30.50;83.90
17442;DHT22;8838;50.144;8.176;2022-08-30T14:14:28;30.30;83.90
17442;DHT22;8838;50.144;8.176;2022-08-30T14:16:55;30.30;84.20
17442;DHT22;8838;50.144;8.176;2022-08-30T14:19:22;30.40;83.40
17442;DHT22;8838;50.144;8.176;2022-08-30T14:21:49;30.30;83.20
17442;DHT22;8838;50.144;8.176;2022-08-30T14:24:17;30.10;83.80
17442;DHT22;8838;50.144;8.176;2022-08-30T14:26:47;29.90;84.20
17442;DHT22;8838;50.144;8.176;2022-08-30T14:29:18;29.90;84.20
17442;DHT22;8838;50.144;8.176;2022-08-30T14:31:46;29.90;84.20
17442;DHT22;8838;50.144;8.176;2022-08-30T14:34:15;30.00;84.50
17442;DHT22;8838;50.144;8.176;2022-08-30T14:36:44;30.10;83.70
17442;DHT22;8838;50.144;8.176;2022-08-30T14:39:13;30.30;85.00
17442;DHT22;8838;50.144;8.176;2022-08-30T14:41:45;30.50;84.70
17442;DHT22;8838;50.144;8.176;2022-08-30T14:44:14;30.80;84.10
17442;DHT22;8838;50.144;8.176;2022-08-30T14:46:42;30.70;83.40
17442;DHT22;8838;50.144;8.176;2022-08-30T14:49:12;30.90;83.80
17442;DHT22;8838;50.144;8.176;2022-08-30T14:51:39;31.10;82.30
17442;DHT22;8838;50.144;8.176;2022-08-30T14:54:06;31.20;82.60
17442;DHT22;8838;50.144;8.176;2022-08-30T14:56:37;31.30;81.40
17442;DHT22;8838;50.144;8.176;2022-08-30T14:59:06;30.70;81.70
17442;DHT22;8838;50.144;8.176;2022-08-30T15:01:33;30.10;83.10
17442;DHT22;8838;50.144;8.176;2022-08-30T15:04:19;29.80;84.30
17442;DHT22;8838;50.144;8.176;2022-08-30T15:06:56;29.60;84.50
17442;DHT22;8838;50.144;8.176;2022-08-30T15:09:23;29.30;84.00
17442;DHT22;8838;50.144;8.176;2022-08-30T15:11:50;29.10;84.40
17442;DHT22;8838;50.144;8.176;2022-08-30T15:14:19;29.10;85.00
17442;DHT22;8838;50.144;8.176;2022-08-30T15:16:46;29.10;85.70
17442;DHT22;8838;50.144;8.176;2022-08-30T15:19:13;29.10;85.40
17442;DHT22;8838;50.144;8.176;2022-08-30T15:21:42;29.20;85.40
17442;DHT22;8838;50.144;8.176;2022-08-30T15:24:14;29.10;85.60
17442;DHT22;8838;50.144;8.176;2022-08-30T15:26:41;29.40;85.20
17442;DHT22;8838;50.144;8.176;2022-08-30T15:29:09;29.70;83.50
17442;DHT22;8838;50.144;8.176;2022-08-30T15:31:38;30.10;84.60
17442;DHT22;8838;50.144;8.176;2022-08-30T15:34:06;30.40;83.50
17442;DHT22;8838;50.144;8.176;2022-08-30T15:36:33;30.50;81.70
17442;DHT22;8838;50.144;8.176;2022-08-30T15:39:00;30.50;82.10
17442;DHT22;8838;50.144;8.176;2022-08-30T15:41:27;30.40;82.40
17442;DHT22;8838;50.144;8.176;2022-08-30T15:43:55;30.20;81.10
17442;DHT22;8838;50.144;8.176;2022-08-30T15:46:24;29.70;83.10
17442;DHT22;8838;50.144;8.176;2022-08-30T15:48:58;29.60;83.00
17442;DHT22;8838;50.144;8.176;2022-08-30T15:51:25;29.80;83.10
17442;DHT22;8838;50.144;8.176;2022-08-30T15:53:52;29.90;82.60
17442;DHT22;8838;50.144;8.176;2022-08-30T15:56:19;29.90;82.50
17442;DHT22;8838;50.144;8.176;2022-08-30T15:58:46;29.70;82.90
17442;DHT22;8838;50.144;8.176;2022-08-30T16:01:13;29.60;83.80
17442;DHT22;8838;50.144;8.176;2022-08-30T16:03:41;29.50;83.50
17442;DHT22;8838;50.144;8.176;2022-08-30T16:06:12;29.20;84.70
17442;DHT22;8838;50.144;8.176;2022-08-30T16:08:40;28.90;84.70
17442;DHT22;8838;50.144;8.176;2022-08-30T16:11:09;29.00;85.20
17442;DHT22;8838;50.144;8.176;2022-08-30T16:13:36;29.10;85.00
17442;DHT22;8838;50.144;8.176;2022-08-30T16:16:05;29.20;84.80